Time;durP1;ratioP1;P1;durP2;ratioP2;P2;SDS_P1;SDS_P2;PMS_P1;PMS_P2;Temp;Humidity;BMP_temperature;BMP_pressure;BME280_temperature;BME280_humidity;BME280_pressure;Samples;Min_cycle;Max_cycle;Signal;HPM_P1;HPM_P2
2023/03/01 00:02:04;;;;;;;15.52;11.68;;;0.60;99.90;;;;;;5022817;28;20041;-84
2023/03/01 00:04:30;;;;;;;17.08;11.43;;;3.50;99.90;;;;;;5039977;28;20110;-81
2023/03/01 00:06:56;;;;;;;18.30;11.65;;;0.90;99.90;;;;;;5037617;28;20472;-82
2023/03/01 00:09:22;;;;;;;15.63;11.25;;;0.80;99.90;;;;;;5015901;28;20133;-85
2023/03/01 00:11:48;;;;;;;19.27;11.52;;;0.90;99.90;;;;;;5040027;28;20048;-82
2023/03/01 00:14:16;;;;;;;15.30;12.07;;;2.00;99.90;;;;;;5039867;28;20064;-83
2023/03/01 00:16:43;;;;;;;15.13;11.52;;;2.80;99.90;;;;;;5005834;28;20084;-81
2023/03/01 00:19:15;;;;;;;16.88;11.77;;;0.70;99.90;;;;;;5039624;28;20132;-84
2023/03/01 00:21:41;;;;;;;17.05;11.98;;;0.70;99.90;;;;;;5004205;28;20053;-82
2023/03/01 00:24:10;;;;;;;17.60;11.82;;;1.70;99.90;;;;;;5036402;28;20382;-82
2023/03/01 00:26:36;;;;;;;14.82;12.02;;;0.60;99.90;;;;;;5034999;28;20103;-81
2023/03/01 00:29:03;;;;;;;20.02;11.70;;;0.50;99.90;;;;;;5022980;28;20052;-82
2023/03/01 00:31:31;;;;;;;15.38;11.05;;;2.00;99.90;;;;;;5021972;28;20175;-84
2023/03/01 00:33:59;;;;;;;15.27;10.88;;;0.40;99.90;;;;;;4999382;28;20683;-84
2023/03/01 00:36:27;;;;;;;16.13;11.93;;;0.50;99.90;;;;;;5015706;28;20132;-82
2023/03/01 00:38:53;;;;;;;16.52;11.57;;;0.50;99.90;;;;;;5028021;28;20057;-83
2023/03/01 00:41:22;;;;;;;17.45;11.50;;;0.50;99.90;;;;;;5016244;28;20053;-83
2023/03/01 00:43:48;;;;;;;15.10;11.10;;;0.40;99.90;;;;;;5004273;28;20065;-84
2023/03/01 00:46:16;;;;;;;18.48;12.27;;;0.50;99.90;;;;;;5022074;28;20126;-84
2023/03/01 00:48:42;;;;;;;17.00;11.95;;;1.40;99.90;;;;;;5019890;28;20048;-82
2023/03/01 00:51:20;;;;;;;14.23;11.27;;;2.20;99.90;;;;;;5015706;28;20331;-83
2023/03/01 00:53:47;;;;;;;14.60;11.05;;;0.30;99.90;;;;;;5038242;28;20052;-83
2023/03/01 00:56:14;;;;;;;15.32;10.85;;;0.30;99.90;;;;;;5040609;28;20057;-83
2023/03/01 00:58:40;;;;;;;15.48;10.77;;;0.40;99.90;;;;;;5019627;28;20056;-83
2023/03/01 01:01:18;;;;;;;14.32;11.02;;;0.40;99.90;;;;;;5016217;28;20049;-84
2023/03/01 01:03:56;;;;;;;14.32;10.68;;;0.40;99.90;;;;;;5019281;28;20144;-83
2023/03/01 01:06:25;;;;;;;14.70;10.80;;;0.40;99.90;;;;;;5022217;28;20060;-84
2023/03/01 01:08:52;;;;;;;14.73;10.73;;;0.40;99.90;;;;;;5018697;28;20049;-83
2023/03/01 01:11:18;;;;;;;15.07;11.57;;;2.10;99.90;;;;;;4999510;28;20406;-82
2023/03/01 01:13:45;;;;;;;15.13;11.10;;;0.90;99.90;;;;;;5024942;28;20504;-84
2023/03/01 01:16:11;;;;;;;15.68;11.63;;;0.40;99.90;;;;;;5032315;28;20052;-83
2023/03/01 01:18:37;;;;;;;17.23;11.77;;;0.50;99.90;;;;;;5034096;28;20401;-84
2023/03/01 01:21:08;;;;;;;15.75;11.38;;;1.60;99.90;;;;;;5021959;28;20045;-84
2023/03/01 01:23:33;;;;;;;14.35;10.80;;;0.50;99.90;;;;;;5040319;28;20048;-84
2023/03/01 01:26:15;;;;;;;15.00;10.88;;;0.90;99.90;;;;;;4999349;28;20473;-83
2023/03/01 01:28:44;;;;;;;19.35;11.57;;;0.10;99.90;;;;;;5018147;28;20052;-83
2023/03/01 01:31:09;;;;;;;15.63;11.70;;;0.40;99.90;;;;;;5006024;28;20408;-83
2023/03/01 01:33:35;;;;;;;17.83;10.82;;;0.30;99.90;;;;;;5020471;28;20063;-82
2023/03/01 01:36:01;;;;;;;13.75;10.52;;;0.30;99.90;;;;;;5036899;28;20461;-85
2023/03/01 01:38:27;;;;;;;16.65;10.35;;;0.60;99.90;;;;;;5036324;28;20056;-83
2023/03/01 01:40:52;;;;;;;16.52;10.40;;;0.30;99.90;;;;;;5019873;28;20063;-83
2023/03/01 01:43:31;;;;;;;13.73;10.52;;;0.40;99.90;;;;;;5005447;28;20076;-84
2023/03/01 01:46:04;;;;;;;12.43;10.07;;;0.90;99.90;;;;;;5015192;28;20061;-84
2023/03/01 01:48:41;;;;;;;12.75;9.60;;;0.40;99.90;;;;;;5030951;28;20081;-80
2023/03/01 01:51:12;;;;;;;15.57;9.93;;;0.30;99.90;;;;;;5035789;28;20052;-83
2023/03/01 01:53:39;;;;;;;11.85;9.73;;;0.30;99.90;;;;;;5042240;28;20637;-84
2023/03/01 01:56:08;;;;;;;17.38;10.38;;;0.30;99.90;;;;;;5006034;28;20045;-83
2023/03/01 01:58:34;;;;;;;14.95;11.15;;;0.30;99.90;;;;;;5018728;28;20061;-84
2023/03/01 02:01:01;;;;;;;16.52;11.32;;;0.10;99.90;;;;;;5009122;28;20037;-84
2023/03/01 02:03:33;;;;;;;17.25;11.35;;;0.20;99.90;;;;;;5008377;28;20059;-83
2023/03/01 02:06:13;;;;;;;16.08;12.00;;;0.20;99.90;;;;;;5017259;28;20126;-85
2023/03/01 02:08:42;;;;;;;18.60;11.50;;;0.00;99.90;;;;;;5024121;28;20045;-82
2023/03/01 02:11:10;;;;;;;19.77;12.90;;;0.10;99.90;;;;;;5025573;28;20052;-83
2023/03/01 02:13:36;;;;;;;22.13;13.52;;;0.10;99.90;;;;;;5024407;28;20049;-82
2023/03/01 02:16:10;;;;;;;19.80;13.38;;;0.00;99.90;;;;;;5039529;28;20055;-85
2023/03/01 02:18:38;;;;;;;16.63;13.25;;;-0.10;99.90;;;;;;5018882;28;20100;-84
2023/03/01 02:21:34;;;;;;;19.58;12.80;;;2.10;99.90;;;;;;5025377;28;20047;-85
2023/03/01 02:24:24;;;;;;;22.48;13.98;;;0.00;99.90;;;;;;5010006;28;20140;-85
2023/03/01 02:26:54;;;;;;;19.90;13.38;;;0.00;99.90;;;;;;5022273;28;20058;-85
2023/03/01 02:29:22;;;;;;;32.60;13.63;;;0.00;99.90;;;;;;5043370;28;20059;-83
2023/03/01 02:31:48;;;;;;;19.77;13.45;;;0.00;99.90;;;;;;5039184;28;20456;-84
2023/03/01 02:34:21;;;;;;;19.80;13.50;;;1.10;99.90;;;;;;5005306;28;20056;-84
2023/03/01 02:37:00;;;;;;;24.63;12.93;;;-0.10;99.90;;;;;;5003314;28;20482;-84
2023/03/01 02:39:31;;;;;;;20.13;14.23;;;-0.10;99.90;;;;;;5025053;28;20049;-84
2023/03/01 02:41:58;;;;;;;22.55;13.27;;;-0.30;99.90;;;;;;5022279;28;20057;-85
2023/03/01 02:44:24;;;;;;;17.48;12.13;;;-0.20;99.90;;;;;;5037128;28;20053;-83
2023/03/01 02:46:56;;;;;;;21.90;14.63;;;-0.20;99.90;;;;;;5022281;28;20571;-84
2023/03/01 02:49:25;;;;;;;20.90;14.05;;;1.60;99.90;;;;;;5018289;28;20278;-84
2023/03/01 02:52:29;;;;;;;18.75;13.30;;;-0.30;99.90;;;;;;5020598;28;20061;-83
2023/03/01 02:55:02;;;;;;;17.13;13.10;;;-0.40;99.90;;;;;;5022235;28;20049;-84
2023/03/01 02:57:29;;;;;;;19.63;11.95;;;-0.40;99.90;;;;;;5001787;28;20518;-84
2023/03/01 02:59:57;;;;;;;15.48;12.20;;;1.70;99.90;;;;;;5005402;28;20046;-83
2023/03/01 03:02:37;;;;;;;13.88;10.80;;;1.30;99.90;;;;;;5039647;28;20060;-85
2023/03/01 03:05:20;;;;;;;18.45;12.23;;;-0.40;99.90;;;;;;5009296;28;20505;-83
2023/03/01 03:07:48;;;;;;;25.33;12.13;;;0.00;99.90;;;;;;5037228;28;20563;-84
2023/03/01 03:10:26;;;;;;;23.55;12.98;;;0.80;99.90;;;;;;5042559;28;20176;-85
2023/03/01 03:12:55;;;;;;;18.00;12.15;;;-0.50;99.90;;;;;;5014030;28;20057;-84
2023/03/01 03:15:22;;;;;;;13.65;11.05;;;-0.70;99.90;;;;;;5024406;28;20055;-83
2023/03/01 03:17:49;;;;;;;21.02;12.20;;;-0.60;99.90;;;;;;5039240;28;20045;-83
2023/03/01 03:20:18;;;;;;;13.55;10.43;;;-0.60;99.90;;;;;;5017457;28;20089;-83
2023/03/01 03:22:54;;;;;;;16.30;12.25;;;-0.60;99.90;;;;;;5035390;28;20046;-86
2023/03/01 03:25:21;;;;;;;16.33;11.75;;;-0.70;99.90;;;;;;5025508;28;20045;-85
2023/03/01 03:27:49;;;;;;;20.23;12.20;;;1.10;99.90;;;;;;5040552;28;20084;-83
2023/03/01 03:30:21;;;;;;;16.13;11.52;;;-1.00;99.90;;;;;;5038640;28;20119;-84
2023/03/01 03:32:53;;;;;;;13.55;10.52;;;0.30;99.90;;;;;;5002790;28;20065;-86
2023/03/01 03:35:30;;;;;;;28.50;12.05;;;1.40;99.90;;;;;;5042771;28;20091;-85
2023/03/01 03:38:03;;;;;;;21.38;12.57;;;-1.50;99.90;;;;;;5022089;28;20056;-85
2023/03/01 03:40:36;;;;;;;22.10;12.50;;;-0.80;99.90;;;;;;5016564;28;20049;-85
2023/03/01 03:43:10;;;;;;;35.65;13.25;;;-0.80;99.90;;;;;;5040439;28;20045;-85
2023/03/01 03:45:36;;;;;;;32.22;13.60;;;-0.80;99.90;;;;;;5041267;28;20044;-85
2023/03/01 03:48:04;;;;;;;28.30;12.50;;;-1.20;99.90;;;;;;5020444;28;20056;-86
2023/03/01 03:50:31;;;;;;;24.85;14.77;;;-1.10;99.90;;;;;;5000713;28;20530;-84
2023/03/01 03:52:56;;;;;;;20.75;14.77;;;-1.20;99.90;;;;;;5037952;28;20160;-84
2023/03/01 03:55:22;;;;;;;18.38;12.80;;;-1.30;99.90;;;;;;5041154;28;20060;-85
2023/03/01 03:57:51;;;;;;;23.20;14.63;;;0.80;99.90;;;;;;5040189;28;20123;-85
2023/03/01 04:00:21;;;;;;;19.75;14.55;;;-1.30;99.90;;;;;;5038071;28;20050;-84
2023/03/01 04:02:48;;;;;;;19.85;14.63;;;-1.20;99.90;;;;;;5037438;28;20420;-85
2023/03/01 04:05:16;;;;;;;18.80;14.50;;;-1.20;99.90;;;;;;5007174;28;20041;-85
2023/03/01 04:07:43;;;;;;;21.63;14.82;;;0.80;99.90;;;;;;5040430;28;20505;-84
2023/03/01 04:10:12;;;;;;;17.73;13.13;;;-1.30;99.90;;;;;;5029020;28;20049;-83
2023/03/01 04:12:38;;;;;;;22.90;16.40;;;-1.20;99.90;;;;;;5015621;28;20054;-81
2023/03/01 04:15:12;;;;;;;20.17;14.90;;;-1.60;99.90;;;;;;5022172;28;20049;-82
2023/03/01 04:17:46;;;;;;;20.67;14.23;;;-1.10;99.90;;;;;;5022957;28;20049;-82
2023/03/01 04:20:17;;;;;;;21.63;15.10;;;-0.70;99.90;;;;;;5015495;28;20091;-86
2023/03/01 04:22:46;;;;;;;23.77;15.07;;;-1.20;99.90;;;;;;5005293;28;20068;-82
2023/03/01 04:25:13;;;;;;;21.92;15.63;;;-1.10;99.90;;;;;;4992452;28;20137;-84
2023/03/01 04:27:40;;;;;;;20.77;14.80;;;-1.20;99.90;;;;;;5014620;28;20048;-84
2023/03/01 04:30:06;;;;;;;18.95;13.57;;;-1.10;99.90;;;;;;5019433;28;20493;-85
2023/03/01 04:32:32;;;;;;;20.67;14.55;;;;;;;;;;4999305;28;20060;-83
2023/03/01 04:34:58;;;;;;;18.83;13.57;;;-1.00;99.90;;;;;;5037468;28;20046;-81
2023/03/01 04:37:25;;;;;;;18.92;13.77;;;-1.00;99.90;;;;;;5022144;28;20041;-85
2023/03/01 04:39:50;;;;;;;18.52;14.43;;;1.70;99.90;;;;;;5005657;28;20134;-84
2023/03/01 04:42:19;;;;;;;19.45;13.63;;;-0.90;99.90;;;;;;5016804;28;20046;-85
2023/03/01 04:44:45;;;;;;;21.77;12.95;;;1.00;99.90;;;;;;5026440;28;20049;-86
2023/03/01 04:47:12;;;;;;;18.65;12.98;;;-2.40;99.90;;;;;;5031164;28;20048;-84
2023/03/01 04:49:38;;;;;;;17.73;12.77;;;-1.00;99.90;;;;;;5022516;28;20049;-86
2023/03/01 04:52:04;;;;;;;20.48;13.35;;;-0.70;99.90;;;;;;5036769;28;20402;-85
2023/03/01 04:54:32;;;;;;;18.83;13.13;;;-1.00;99.90;;;;;;5016312;28;20140;-82
2023/03/01 04:56:58;;;;;;;18.25;13.10;;;-1.20;99.90;;;;;;5018746;28;20258;-82
2023/03/01 04:59:23;;;;;;;18.38;12.80;;;-1.80;99.90;;;;;;5021980;28;20063;-85
2023/03/01 05:01:50;;;;;;;19.30;13.23;;;-0.40;99.90;;;;;;5021353;28;20053;-84
2023/03/01 05:04:16;;;;;;;17.10;12.30;;;-1.10;99.90;;;;;;4999905;28;20081;-85
2023/03/01 05:06:42;;;;;;;19.45;13.02;;;-0.50;99.90;;;;;;5013937;28;20104;-87
2023/03/01 05:09:08;;;;;;;15.75;12.35;;;1.40;99.90;;;;;;5037979;28;20056;-86
2023/03/01 05:11:35;;;;;;;16.83;12.20;;;0.50;99.90;;;;;;5005371;28;20098;-86
2023/03/01 05:14:08;;;;;;;17.35;11.75;;;-1.30;99.90;;;;;;5003770;28;20085;-85
2023/03/01 05:16:35;;;;;;;15.50;12.18;;;1.00;99.90;;;;;;4999598;28;20350;-85
2023/03/01 05:19:11;;;;;;;15.77;11.32;;;-1.60;99.90;;;;;;5018426;28;20046;-86
2023/03/01 05:22:01;;;;;;;16.95;12.43;;;-1.00;99.90;;;;;;5038385;28;20122;-84
2023/03/01 05:24:24;;;;;;;15.65;11.65;;;-1.00;99.90;;;;;;5036015;28;20056;-85
2023/03/01 05:26:51;;;;;;;16.77;10.95;;;-1.10;99.90;;;;;;5036235;28;20278;-85
2023/03/01 05:29:24;;;;;;;16.40;11.35;;;-1.40;99.90;;;;;;5022200;28;20075;-82
2023/03/01 05:32:02;;;;;;;18.20;11.93;;;-1.10;99.90;;;;;;5005144;28;20068;-85
2023/03/01 05:34:31;;;;;;;15.95;11.90;;;-1.10;99.90;;;;;;5015006;28;20185;-86
2023/03/01 05:36:56;;;;;;;19.30;12.00;;;-1.20;99.90;;;;;;5000536;28;20053;-86
2023/03/01 05:39:24;;;;;;;21.02;14.13;;;-1.10;99.90;;;;;;5023137;28;20377;-85
2023/03/01 05:41:58;;;;;;;19.58;13.30;;;-1.10;99.90;;;;;;5022232;28;20064;-87
2023/03/01 05:44:25;;;;;;;16.83;12.05;;;-1.00;99.90;;;;;;5026901;28;20159;-87
2023/03/01 05:46:51;;;;;;;14.98;11.63;;;1.10;99.90;;;;;;5004362;28;20391;-87
2023/03/01 05:49:17;;;;;;;15.07;10.88;;;-1.10;99.90;;;;;;4999691;28;20537;-87
2023/03/01 05:51:47;;;;;;;15.93;11.05;;;-1.20;99.90;;;;;;5014638;28;20052;-84
2023/03/01 05:54:13;;;;;;;11.40;9.20;;;-1.30;99.90;;;;;;5026435;28;20045;-86
2023/03/01 05:56:38;;;;;;;13.60;9.75;;;0.10;99.90;;;;;;5036003;28;20046;-86
2023/03/01 05:59:05;;;;;;;14.52;10.27;;;-1.30;99.90;;;;;;5019289;28;20042;-85
2023/03/01 06:01:34;;;;;;;11.27;8.77;;;0.20;99.90;;;;;;5021749;28;20445;-84
2023/03/01 06:04:00;;;;;;;12.88;9.10;;;-1.30;99.90;;;;;;5020715;28;20485;-86
2023/03/01 06:06:26;;;;;;;14.70;9.05;;;-1.30;99.90;;;;;;5036449;28;20048;-86
2023/03/01 06:08:53;;;;;;;11.95;8.98;;;0.20;99.90;;;;;;4997608;28;20062;-87
2023/03/01 06:11:20;;;;;;;10.55;8.18;;;-0.20;99.90;;;;;;5005761;28;20041;-86
2023/03/01 06:13:46;;;;;;;12.65;9.13;;;-0.30;99.90;;;;;;5038742;28;20052;-87
2023/03/01 06:16:12;;;;;;;12.40;9.10;;;-0.70;99.90;;;;;;5018410;28;20525;-87
2023/03/01 06:18:38;;;;;;;9.52;7.95;;;-1.30;99.90;;;;;;4998557;28;20533;-84
2023/03/01 06:21:08;;;;;;;11.38;8.40;;;0.50;99.90;;;;;;5004497;28;20111;-87
2023/03/01 06:23:34;;;;;;;12.20;9.35;;;-1.30;99.90;;;;;;5004800;28;20056;-83
2023/03/01 06:26:04;;;;;;;12.45;9.45;;;0.90;99.90;;;;;;4999666;28;20056;-86
2023/03/01 06:28:30;;;;;;;11.30;7.57;;;-1.80;99.90;;;;;;5014772;28;20065;-84
2023/03/01 06:30:56;;;;;;;9.25;7.15;;;-1.40;99.90;;;;;;5001159;28;20057;-84
2023/03/01 06:33:23;;;;;;;8.48;6.60;;;-0.20;99.90;;;;;;5005125;28;20079;-83
2023/03/01 06:35:50;;;;;;;10.30;8.52;;;-0.60;99.90;;;;;;5021181;28;20045;-83
2023/03/01 06:38:18;;;;;;;12.98;9.70;;;0.10;99.90;;;;;;5039997;28;20532;-85
2023/03/01 06:40:44;;;;;;;12.70;9.32;;;0.90;99.90;;;;;;5018062;28;20081;-84
2023/03/01 06:43:09;;;;;;;10.02;8.32;;;-0.70;99.90;;;;;;5006100;28;20507;-82
2023/03/01 06:45:37;;;;;;;8.18;7.20;;;-1.30;99.90;;;;;;5042326;28;20087;-82
2023/03/01 06:48:05;;;;;;;7.60;6.80;;;-1.90;99.90;;;;;;5023630;28;20053;-82
2023/03/01 06:50:31;;;;;;;7.80;7.00;;;-1.30;99.90;;;;;;5021683;28;20053;-81
2023/03/01 06:52:57;;;;;;;8.35;7.30;;;-0.40;99.90;;;;;;5022004;28;20050;-84
2023/03/01 06:55:24;;;;;;;9.63;7.63;;;-1.90;99.90;;;;;;5042764;28;20639;-81
2023/03/01 06:57:55;;;;;;;6.85;6.15;;;-1.50;99.90;;;;;;5023627;28;20404;-84
2023/03/01 07:00:21;;;;;;;8.10;6.53;;;0.70;99.90;;;;;;5021358;28;20045;-83
2023/03/01 07:02:50;;;;;;;9.70;6.60;;;-1.50;99.90;;;;;;5004532;28;20433;-82
2023/03/01 07:05:16;;;;;;;8.40;6.63;;;-1.50;99.90;;;;;;5022552;28;20069;-83
2023/03/01 07:07:41;;;;;;;8.38;6.75;;;0.10;99.90;;;;;;5024308;28;20662;-84
2023/03/01 07:10:08;;;;;;;9.05;7.53;;;-1.80;99.90;;;;;;5023293;28;20045;-86
2023/03/01 07:12:34;;;;;;;8.98;7.32;;;-1.70;99.90;;;;;;5000724;28;20123;-82
2023/03/01 07:14:59;;;;;;;11.18;7.82;;;-1.80;99.90;;;;;;5004770;28;20564;-86
2023/03/01 07:17:25;;;;;;;9.82;7.63;;;-1.10;99.90;;;;;;5024852;28;20045;-86
2023/03/01 07:19:51;;;;;;;10.95;8.40;;;-1.70;99.90;;;;;;5041084;28;20558;-85
2023/03/01 07:22:16;;;;;;;11.38;8.55;;;-1.20;99.90;;;;;;5039404;28;20052;-83
2023/03/01 07:24:43;;;;;;;10.77;8.38;;;-2.10;99.90;;;;;;5020661;28;20589;-84
2023/03/01 07:27:09;;;;;;;11.50;8.18;;;0.20;99.90;;;;;;5021547;28;20064;-85
2023/03/01 07:29:38;;;;;;;10.30;8.25;;;-1.40;99.90;;;;;;5023841;28;20120;-87
2023/03/01 07:32:04;;;;;;;12.55;9.30;;;-1.80;99.90;;;;;;5022562;28;20448;-85
2023/03/01 07:34:30;;;;;;;13.68;9.30;;;-1.60;99.90;;;;;;5001064;28;20141;-86
2023/03/01 07:36:56;;;;;;;12.75;9.63;;;-1.60;99.90;;;;;;5017091;28;20134;-83
2023/03/01 07:39:32;;;;;;;11.73;9.13;;;-1.60;99.90;;;;;;5013944;28;20041;-84
2023/03/01 07:41:57;;;;;;;13.00;9.52;;;-1.70;99.90;;;;;;5000996;28;20049;-85
2023/03/01 07:44:23;;;;;;;11.45;8.40;;;-0.50;99.90;;;;;;5023910;28;20467;-87
2023/03/01 07:46:49;;;;;;;13.18;9.07;;;-1.20;99.90;;;;;;5022988;28;20563;-84
2023/03/01 07:49:16;;;;;;;12.02;9.13;;;-1.40;99.90;;;;;;5021845;28;20508;-85
2023/03/01 07:51:43;;;;;;;14.27;10.02;;;-1.20;99.90;;;;;;5016673;28;20104;-87
2023/03/01 07:54:08;;;;;;;15.00;11.55;;;-1.30;99.90;;;;;;5002210;28;20429;-84
2023/03/01 07:56:34;;;;;;;16.08;11.45;;;0.30;99.90;;;;;;5042900;28;20037;-85
2023/03/01 07:59:00;;;;;;;16.20;11.95;;;-1.10;99.90;;;;;;5026423;28;20087;-87
2023/03/01 08:01:26;;;;;;;14.48;12.77;;;-1.10;99.90;;;;;;5022300;28;20482;-87
2023/03/01 08:03:51;;;;;;;17.27;12.82;;;-1.20;99.90;;;;;;5000743;28;20057;-83
2023/03/01 08:06:18;;;;;;;17.77;13.18;;;-1.10;99.90;;;;;;5005025;28;20124;-88
2023/03/01 08:08:44;;;;;;;19.45;14.85;;;-1.60;99.90;;;;;;5040642;28;20067;-88
2023/03/01 08:11:12;;;;;;;20.38;14.65;;;-0.80;99.90;;;;;;5022454;28;20110;-87
2023/03/01 08:13:38;;;;;;;20.50;15.10;;;-0.70;99.90;;;;;;5016728;28;20149;-86
2023/03/01 08:16:11;;;;;;;22.73;15.98;;;-0.70;99.90;;;;;;5034850;28;20080;-88
2023/03/01 08:18:37;;;;;;;22.63;16.85;;;-0.60;99.90;;;;;;4994233;28;20118;-88
2023/03/01 08:21:05;;;;;;;26.80;18.10;;;-0.50;99.90;;;;;;5041668;28;20044;-87
2023/03/01 08:23:31;;;;;;;26.52;17.85;;;-0.40;99.90;;;;;;5029263;28;20046;-82
2023/03/01 08:26:21;;;;;;;27.15;19.50;;;-0.60;99.90;;;;;;5026938;28;20390;-88
2023/03/01 08:28:49;;;;;;;27.10;19.10;;;-0.30;99.90;;;;;;5028667;28;20049;-86
2023/03/01 08:31:16;;;;;;;25.95;19.20;;;1.50;99.90;;;;;;5040534;28;20061;-84
2023/03/01 08:33:42;;;;;;;30.02;20.80;;;-0.20;99.90;;;;;;5038496;28;20057;-83
2023/03/01 08:36:07;;;;;;;32.67;21.13;;;1.40;99.90;;;;;;5000953;28;20045;-86
2023/03/01 08:38:35;;;;;;;35.40;22.67;;;-0.10;99.90;;;;;;5007737;28;20053;-85
2023/03/01 08:41:02;;;;;;;33.72;22.27;;;0.00;99.90;;;;;;5024991;28;20049;-82
2023/03/01 08:43:29;;;;;;;38.15;26.60;;;-0.20;99.90;;;;;;5038055;28;20060;-83
2023/03/01 08:45:55;;;;;;;37.03;23.52;;;0.90;99.90;;;;;;5012919;28;20049;-84
2023/03/01 08:48:21;;;;;;;39.28;24.25;;;2.50;99.90;;;;;;5041973;28;20048;-84
2023/03/01 08:50:47;;;;;;;39.58;26.27;;;0.20;99.90;;;;;;5034810;28;20052;-85
2023/03/01 08:53:12;;;;;;;42.67;25.60;;;-0.30;99.90;;;;;;5037367;28;20060;-82
2023/03/01 08:55:38;;;;;;;35.95;24.83;;;2.40;99.90;;;;;;5025750;28;20042;-82
2023/03/01 08:58:03;;;;;;;42.30;25.77;;;2.30;99.90;;;;;;5017126;28;20054;-86
2023/03/01 09:00:29;;;;;;;37.20;26.00;;;2.20;99.90;;;;;;5037994;28;20404;-83
2023/03/01 09:02:55;;;;;;;40.08;24.83;;;0.70;99.90;;;;;;5041760;28;20067;-85
2023/03/01 09:05:20;;;;;;;38.40;23.90;;;1.50;99.90;;;;;;5005704;28;20052;-83
2023/03/01 09:07:46;;;;;;;37.50;26.55;;;0.10;99.90;;;;;;5038284;28;20060;-86
2023/03/01 09:10:12;;;;;;;36.83;25.45;;;0.80;99.90;;;;;;5016913;28;20053;-86
2023/03/01 09:12:37;;;;;;;41.85;26.05;;;1.10;99.90;;;;;;5006238;28;20053;-82
2023/03/01 09:15:03;;;;;;;37.45;24.80;;;1.00;99.90;;;;;;5023249;28;20057;-81
2023/03/01 09:17:29;;;;;;;35.88;25.30;;;1.30;99.90;;;;;;5037058;28;20049;-83
2023/03/01 09:19:55;;;;;;;39.45;24.40;;;;;;;;;;5015505;28;20650;-83
2023/03/01 09:22:21;;;;;;;34.90;24.95;;;1.50;99.90;;;;;;5035885;28;20076;-84
2023/03/01 09:24:46;;;;;;;33.85;22.52;;;0.00;99.90;;;;;;5039389;28;20134;-87
2023/03/01 09:27:14;;;;;;;32.25;21.00;;;1.60;99.90;;;;;;5006201;28;20131;-85
2023/03/01 09:29:40;;;;;;;30.40;22.90;;;1.70;99.90;;;;;;5015776;28;20069;-84
2023/03/01 09:32:07;;;;;;;36.25;22.98;;;3.10;99.90;;;;;;5039608;28;20508;-86
2023/03/01 09:35:00;;;;;;;37.10;22.13;;;1.60;99.90;;;;;;5019923;28;20126;-82
2023/03/01 09:37:19;;;;;;;36.67;23.92;;;3.30;99.90;;;;;;5016575;28;20535;-82
2023/03/01 09:39:44;;;;;;;35.65;24.35;;;1.90;99.90;;;;;;5004592;28;20052;-85
2023/03/01 09:42:12;;;;;;;37.40;23.65;;;3.80;99.90;;;;;;5040001;28;20531;-81
2023/03/01 09:44:44;;;;;;;29.83;22.13;;;2.10;99.90;;;;;;5018183;28;20132;-83
2023/03/01 09:47:23;;;;;;;32.75;22.75;;;4.10;99.90;;;;;;4998589;28;20060;-86
2023/03/01 09:50:20;;;;;;;29.00;20.35;;;2.40;99.90;;;;;;5030892;28;20520;-84
2023/03/01 09:52:49;;;;;;;25.38;18.85;;;2.50;99.90;;;;;;5023956;28;20128;-85
2023/03/01 09:55:20;;;;;;;30.20;20.55;;;2.50;99.90;;;;;;5022305;28;20124;-84
2023/03/01 09:58:02;;;;;;;30.58;19.55;;;2.60;99.90;;;;;;5028498;28;20045;-83
2023/03/01 10:00:41;;;;;;;24.67;17.77;;;2.60;99.90;;;;;;5003127;28;20050;-82
2023/03/01 10:03:55;;;;;;;26.85;18.73;;;2.70;99.90;;;;;;5022191;28;20503;-82
2023/03/01 10:06:23;;;;;;;28.95;19.40;;;2.70;99.90;;;;;;5035019;28;20512;-85
2023/03/01 10:08:54;;;;;;;23.35;16.42;;;2.80;99.90;;;;;;5000726;28;20053;-85
2023/03/01 10:11:25;;;;;;;27.23;16.83;;;2.90;99.90;;;;;;5020371;28;20390;-84
2023/03/01 10:13:53;;;;;;;23.92;17.38;;;2.90;99.90;;;;;;5025409;28;20523;-85
2023/03/01 10:16:54;;;;;;;20.30;15.75;;;3.00;99.90;;;;;;5025468;28;20473;-87
2023/03/01 10:19:31;;;;;;;22.30;16.20;;;3.00;99.90;;;;;;5019262;28;20518;-86
2023/03/01 10:22:04;;;;;;;23.30;14.98;;;3.50;99.90;;;;;;5024655;28;20053;-87
2023/03/01 10:24:33;;;;;;;18.88;13.05;;;3.10;99.90;;;;;;5024374;28;20057;-81
2023/03/01 10:27:06;;;;;;;21.13;15.25;;;3.20;99.90;;;;;;5018531;28;20058;-86
2023/03/01 10:30:04;;;;;;;19.27;14.63;;;3.20;99.90;;;;;;5021075;28;20053;-86
2023/03/01 10:32:30;;;;;;;22.02;12.88;;;3.30;99.90;;;;;;5023051;28;20696;-84
2023/03/01 10:34:57;;;;;;;14.75;11.32;;;3.40;99.90;;;;;;5017960;28;20093;-85
2023/03/01 10:37:24;;;;;;;13.88;11.52;;;3.50;99.90;;;;;;5018663;28;20060;-86
2023/03/01 10:40:09;;;;;;;15.52;12.32;;;5.40;99.90;;;;;;5008082;28;20061;-84
2023/03/01 10:42:49;;;;;;;15.75;12.90;;;3.70;99.90;;;;;;5021882;28;20084;-85
2023/03/01 10:45:35;;;;;;;17.13;14.38;;;5.60;99.90;;;;;;5018648;28;20389;-85
2023/03/01 10:48:15;;;;;;;18.35;13.38;;;4.10;99.90;;;;;;5012558;28;20048;-85
2023/03/01 10:50:44;;;;;;;16.65;14.30;;;4.00;99.90;;;;;;5021445;28;20056;-84
2023/03/01 10:53:47;;;;;;;17.50;13.32;;;5.30;99.90;;;;;;5001842;28;20106;-84
2023/03/01 10:56:15;;;;;;;17.55;11.98;;;4.00;99.90;;;;;;5035812;28;20049;-84
2023/03/01 10:58:59;;;;;;;19.27;12.85;;;5.90;99.90;;;;;;5021576;28;20065;-83
2023/03/01 11:01:34;;;;;;;16.27;12.10;;;5.40;99.90;;;;;;5002089;28;20080;-84
2023/03/01 11:04:18;;;;;;;14.65;11.68;;;4.40;99.90;;;;;;5042009;28;20303;-82
2023/03/01 11:06:57;;;;;;;15.48;12.00;;;4.40;99.90;;;;;;5021635;28;20056;-85
2023/03/01 11:09:27;;;;;;;17.77;11.52;;;4.50;99.90;;;;;;5017769;28;20150;-83
2023/03/01 11:11:57;;;;;;;18.20;11.02;;;4.60;99.90;;;;;;5029868;28;20051;-85
2023/03/01 11:14:25;;;;;;;16.45;11.40;;;4.70;99.90;;;;;;5038946;28;20041;-83
2023/03/01 11:17:12;;;;;;;15.90;10.82;;;5.70;99.90;;;;;;5030823;28;20048;-83
2023/03/01 11:19:37;;;;;;;14.13;10.65;;;5.70;99.90;;;;;;5005120;28;20046;-85
2023/03/01 11:22:16;;;;;;;14.48;10.48;;;4.90;99.90;;;;;;5024034;28;20078;-84
2023/03/01 11:24:46;;;;;;;13.30;10.27;;;5.00;99.90;;;;;;5020854;28;20331;-84
2023/03/01 11:27:17;;;;;;;15.32;11.05;;;5.00;99.90;;;;;;5001534;28;20056;-84
2023/03/01 11:30:04;;;;;;;16.33;11.35;;;6.60;99.90;;;;;;5021208;28;20136;-83
2023/03/01 11:32:39;;;;;;;13.90;10.90;;;5.20;99.90;;;;;;5022715;28;20113;-82
2023/03/01 11:35:18;;;;;;;14.82;11.65;;;6.30;99.90;;;;;;5017607;28;20107;-83
2023/03/01 11:38:13;;;;;;;15.80;12.60;;;5.40;99.90;;;;;;5020648;28;20049;-82
2023/03/01 11:41:03;;;;;;;16.63;11.52;;;5.50;99.90;;;;;;5022207;28;20096;-84
2023/03/01 11:44:05;;;;;;;12.13;10.30;;;6.00;99.90;;;;;;5016992;28;20053;-83
2023/03/01 11:46:55;;;;;;;13.25;10.70;;;5.80;99.90;;;;;;5034716;28;20056;-82
2023/03/01 11:49:51;;;;;;;16.55;11.88;;;5.90;99.90;;;;;;5016545;28;20052;-83
2023/03/01 11:52:20;;;;;;;18.70;13.30;;;6.10;99.90;;;;;;5025610;28;20037;-82
2023/03/01 11:54:57;;;;;;;14.95;12.57;;;6.10;99.90;;;;;;5004441;28;20578;-82
2023/03/01 11:57:54;;;;;;;16.58;12.73;;;6.20;99.90;;;;;;5038196;28;20386;-83
2023/03/01 12:00:31;;;;;;;16.50;12.80;;;6.30;99.90;;;;;;5011489;28;20052;-84
2023/03/01 12:03:17;;;;;;;18.00;13.43;;;6.50;99.90;;;;;;5003787;28;20077;-85
2023/03/01 12:06:11;;;;;;;15.07;11.20;;;6.60;99.90;;;;;;5003722;28;20408;-84
2023/03/01 12:08:49;;;;;;;14.60;11.13;;;6.60;99.90;;;;;;5004890;28;20382;-83
2023/03/01 12:11:36;;;;;;;14.35;10.88;;;6.70;99.90;;;;;;5017841;28;20054;-84
2023/03/01 12:14:24;;;;;;;13.30;10.40;;;6.80;99.90;;;;;;5009700;28;20050;-83
2023/03/01 12:16:55;;;;;;;14.55;11.15;;;6.80;99.90;;;;;;5039173;28;20057;-84
2023/03/01 12:19:34;;;;;;;13.30;10.98;;;6.90;99.90;;;;;;5021250;28;20053;-84
2023/03/01 12:22:27;;;;;;;14.27;11.02;;;8.20;99.90;;;;;;4994193;28;20571;-85
2023/03/01 12:25:27;;;;;;;14.15;11.32;;;7.00;99.90;;;;;;5024351;28;20100;-83
2023/03/01 12:28:14;;;;;;;13.35;11.07;;;7.20;99.90;;;;;;5003588;28;20144;-85
2023/03/01 12:30:54;;;;;;;14.48;11.20;;;7.30;99.90;;;;;;5017336;28;20069;-84
2023/03/01 12:34:01;;;;;;;13.45;11.88;;;7.40;99.90;;;;;;5022120;28;20063;-82
2023/03/01 12:36:39;;;;;;;18.40;12.55;;;7.50;99.90;;;;;;5023200;28;20049;-83
2023/03/01 12:39:33;;;;;;;16.83;12.38;;;7.60;99.90;;;;;;5025604;28;20080;-81
2023/03/01 12:41:59;;;;;;;17.23;12.65;;;7.70;99.90;;;;;;5016447;28;20069;-81
2023/03/01 12:45:20;;;;;;;14.43;12.05;;;7.80;99.90;;;;;;5016312;28;20118;-81
2023/03/01 12:48:10;;;;;;;12.00;10.40;;;7.90;99.90;;;;;;5016203;28;20045;-81
2023/03/01 12:50:47;;;;;;;17.05;10.45;;;8.00;99.90;;;;;;4998931;28;20077;-82
2023/03/01 12:53:28;;;;;;;11.88;10.18;;;8.00;99.90;;;;;;5004204;28;20068;-82
2023/03/01 12:55:59;;;;;;;13.27;10.00;;;8.20;99.90;;;;;;5019204;28;20504;-83
2023/03/01 12:59:02;;;;;;;14.60;9.80;;;9.30;99.90;;;;;;5022650;28;20037;-84